createdAt,value
2019-01-16T00:01:07.406Z,6.20
2019-01-16T00:03:52.982Z,5.63
2019-01-16T00:06:35.920Z,4.93
2019-01-16T00:09:35.730Z,6.57
2019-01-16T00:12:36.206Z,8.07
2019-01-16T00:15:18.386Z,6.83
2019-01-16T00:18:18.054Z,6.83
2019-01-16T00:21:00.790Z,7.00
2019-01-16T00:23:43.341Z,5.80
2019-01-16T00:26:43.831Z,5.80
2019-01-16T00:29:26.686Z,5.17
2019-01-16T00:32:26.832Z,8.13
2019-01-16T00:35:08.976Z,6.57
2019-01-16T00:37:54.542Z,7.53
2019-01-16T00:40:54.982Z,6.47
2019-01-16T00:43:36.965Z,7.40
2019-01-16T00:46:18.934Z,6.77
2019-01-16T00:49:04.677Z,7.10
2019-01-16T00:52:04.690Z,7.80
2019-01-16T00:55:04.534Z,6.77
2019-01-16T01:00:54.006Z,7.43
2019-01-16T01:03:36.518Z,8.47
2019-01-16T01:06:36.943Z,6.30
2019-01-16T01:09:36.800Z,8.30
2019-01-16T01:12:18.810Z,10.93
2019-01-16T01:15:19.158Z,9.00
2019-01-16T01:18:18.906Z,8.47
2019-01-16T01:21:18.490Z,7.23
2019-01-16T01:24:01.258Z,7.40
2019-01-16T01:26:46.207Z,7.20
2019-01-16T01:29:31.303Z,10.27
2019-01-16T01:32:13.967Z,9.03
2019-01-16T01:35:13.451Z,8.40
2019-01-16T01:38:13.028Z,9.27
2019-01-16T01:41:12.572Z,7.40
2019-01-16T01:43:57.474Z,7.00
2019-01-16T01:46:39.342Z,7.07
2019-01-16T01:52:34.150Z,6.73
2019-01-16T01:55:19.134Z,7.57
2019-01-16T01:58:19.381Z,9.57
2019-01-16T02:01:19.844Z,5.63
2019-01-16T02:04:01.914Z,9.20
2019-01-16T02:07:02.082Z,6.13
2019-01-16T02:10:01.596Z,6.30
2019-01-16T02:12:43.726Z,7.47
2019-01-16T02:18:23.611Z,6.53
2019-01-16T02:21:06.364Z,5.37
2019-01-16T02:23:48.927Z,6.27
2019-01-16T02:26:48.793Z,5.63
2019-01-16T02:29:33.843Z,5.70
2019-01-16T02:32:19.082Z,7.10
2019-01-16T02:35:19.447Z,7.67
2019-01-16T02:38:01.480Z,6.40
2019-01-16T02:41:01.868Z,6.10
2019-01-16T02:43:44.499Z,7.07
2019-01-16T02:49:45.682Z,5.43
2019-01-16T02:52:52.762Z,5.27
2019-01-16T02:55:59.879Z,6.57
2019-01-16T02:59:06.951Z,6.10
2019-01-16T03:02:14.075Z,5.60
2019-01-16T03:07:57.719Z,5.80
2019-01-16T03:10:42.388Z,6.10
2019-01-16T03:13:25.251Z,5.87
2019-01-16T03:16:25.514Z,6.60
2019-01-16T03:19:25.612Z,6.17
2019-01-16T03:22:07.622Z,7.20
2019-01-16T03:25:07.914Z,6.73
2019-01-16T03:30:47.645Z,5.43
2019-01-16T03:33:29.686Z,5.93
2019-01-16T03:36:29.240Z,7.47
2019-01-16T03:39:14.684Z,6.03
2019-01-16T03:41:57.407Z,6.07
2019-01-16T03:44:57.807Z,6.50
2019-01-16T03:47:58.151Z,8.10
2019-01-16T03:54:05.499Z,6.43
2019-01-16T03:57:12.579Z,5.90
2019-01-16T04:00:19.703Z,6.47
2019-01-16T04:03:26.777Z,6.70
2019-01-16T04:06:33.882Z,7.67
2019-01-16T04:12:23.343Z,6.83
2019-01-16T04:15:08.642Z,5.70
2019-01-16T04:18:09.075Z,6.33
2019-01-16T04:21:09.514Z,5.03
2019-01-16T04:27:16.858Z,5.70
2019-01-16T04:30:25.467Z,6.90
2019-01-16T04:33:32.579Z,6.33
2019-01-16T04:36:39.772Z,6.23
2019-01-16T04:39:46.846Z,5.47
2019-01-16T04:45:48.614Z,5.70
2019-01-16T04:48:55.646Z,6.70
2019-01-16T04:52:02.726Z,5.43
2019-01-16T04:55:09.762Z,5.57
2019-01-16T04:58:16.849Z,4.93
2019-01-16T05:01:23.962Z,7.97
2019-01-16T05:10:25.910Z,5.40
2019-01-16T05:13:32.990Z,4.50
2019-01-16T05:16:40.105Z,5.30
2019-01-16T05:19:47.179Z,4.43
2019-01-16T05:25:49.038Z,5.33
2019-01-16T05:28:56.120Z,3.87
2019-01-16T05:32:03.235Z,4.63
2019-01-16T05:35:10.326Z,5.43
2019-01-16T05:38:17.420Z,3.97
2019-01-16T05:41:24.539Z,3.30
2019-01-16T05:44:31.619Z,4.30
2019-01-16T05:47:38.726Z,3.03
2019-01-16T05:50:45.806Z,5.50
2019-01-16T05:56:51.204Z,3.50
2019-01-16T06:03:06.811Z,3.87
2019-01-16T06:06:13.891Z,4.77
2019-01-16T06:08:56.602Z,5.07
2019-01-16T06:11:56.995Z,4.90
2019-01-16T06:14:41.751Z,3.93
2019-01-16T06:20:35.018Z,4.30
2019-01-16T06:23:34.551Z,5.17
2019-01-16T06:26:20.202Z,6.37
2019-01-16T06:32:27.322Z,4.40
2019-01-16T06:35:13.249Z,4.47
2019-01-16T06:38:13.306Z,3.33
2019-01-16T06:40:55.329Z,4.63
2019-01-16T06:43:40.759Z,3.20
2019-01-16T06:46:23.208Z,4.43
2019-01-16T06:49:23.535Z,3.33
2019-01-16T06:52:08.615Z,3.53
2019-01-16T06:54:51.007Z,3.20
2019-01-16T06:57:36.712Z,3.47
2019-01-16T07:00:37.058Z,3.23
2019-01-16T07:03:36.611Z,4.73
2019-01-16T07:06:19.547Z,3.50
2019-01-16T07:09:02.203Z,2.90
2019-01-16T07:11:47.758Z,3.43
2019-01-16T07:14:30.710Z,3.70
2019-01-16T07:17:13.458Z,3.47
2019-01-16T07:20:13.907Z,3.00
2019-01-16T07:22:56.083Z,3.70
2019-01-16T07:25:55.955Z,4.73
2019-01-16T07:28:55.559Z,4.30
2019-01-16T07:31:40.499Z,3.80
2019-01-16T07:34:22.856Z,3.40
2019-01-16T07:37:05.695Z,3.63
2019-01-16T07:40:05.980Z,4.20
2019-01-16T07:43:05.582Z,3.90
2019-01-16T07:46:05.927Z,3.50
2019-01-16T07:48:47.981Z,4.07
2019-01-16T07:51:33.131Z,5.13
2019-01-16T07:54:33.542Z,3.93
2019-01-16T07:57:15.540Z,3.67
2019-01-16T08:00:15.903Z,5.03
2019-01-16T08:02:59.706Z,3.93
2019-01-16T08:05:59.763Z,3.50
2019-01-16T08:11:49.520Z,4.10
2019-01-16T08:17:42.541Z,3.60
2019-01-16T08:20:42.124Z,4.47
2019-01-16T08:23:24.938Z,4.60
2019-01-16T08:29:31.683Z,4.43
2019-01-16T08:32:13.733Z,4.00
2019-01-16T08:34:59.163Z,4.27
2019-01-16T08:37:59.379Z,3.40
2019-01-16T08:40:45.177Z,4.53
2019-01-16T08:46:52.899Z,2.90
2019-01-16T08:49:53.195Z,3.00
2019-01-16T08:52:53.568Z,3.67
2019-01-16T08:55:53.801Z,3.20
2019-01-16T08:58:38.483Z,3.83
2019-01-16T09:01:23.965Z,2.87
2019-01-16T09:10:25.183Z,4.23
2019-01-16T09:13:25.391Z,4.43
2019-01-16T09:16:25.730Z,3.03
2019-01-16T09:19:08.456Z,3.03
2019-01-16T09:21:51.129Z,3.37
2019-01-16T09:28:06.754Z,2.83
2019-01-16T09:34:22.361Z,2.63
2019-01-16T09:37:38.140Z,3.97
2019-01-16T09:43:45.903Z,2.83
2019-01-16T09:46:45.479Z,2.40
2019-01-16T09:49:45.277Z,2.80
2019-01-16T09:52:52.359Z,2.93
2019-01-16T09:55:59.479Z,2.70
2019-01-16T09:59:06.587Z,2.43
2019-01-16T10:02:13.682Z,2.27
2019-01-16T10:05:20.779Z,2.03
2019-01-16T10:08:21.207Z,2.60
2019-01-16T10:11:06.159Z,2.33
2019-01-16T10:13:51.573Z,3.23
2019-01-16T10:16:51.959Z,3.27
2019-01-16T10:19:51.387Z,2.40
2019-01-16T10:22:34.257Z,2.40
2019-01-16T10:25:16.773Z,3.17
2019-01-16T10:28:17.119Z,2.57
2019-01-16T10:31:17.414Z,3.40
2019-01-16T10:34:17.559Z,2.23
2019-01-16T10:37:17.896Z,2.90
2019-01-16T10:43:25.724Z,2.80
2019-01-16T10:49:04.766Z,3.80
2019-01-16T10:51:46.769Z,2.60
2019-01-16T10:54:29.503Z,2.47
2019-01-16T10:57:29.887Z,2.30
2019-01-16T11:00:30.377Z,2.33
2019-01-16T11:03:30.774Z,4.13
2019-01-16T11:06:30.379Z,2.20
2019-01-16T11:09:30.756Z,2.43
2019-01-16T11:12:31.169Z,2.87
2019-01-16T11:18:21.365Z,3.27
2019-01-16T11:21:21.291Z,3.20
2019-01-16T11:24:03.996Z,3.23
2019-01-16T11:26:46.815Z,2.70
2019-01-16T11:29:47.303Z,2.10
2019-01-16T11:32:46.894Z,3.27
2019-01-16T11:35:47.433Z,2.97
2019-01-16T11:38:46.980Z,2.30
2019-01-16T11:41:29.021Z,4.07
2019-01-16T11:44:29.183Z,2.90
2019-01-16T11:50:36.224Z,2.20
2019-01-16T11:53:36.575Z,3.63
2019-01-16T12:02:07.055Z,3.70
2019-01-16T12:04:49.746Z,3.30
2019-01-16T12:07:35.179Z,3.33
2019-01-16T12:10:17.605Z,3.23
2019-01-16T12:13:00.043Z,5.10
2019-01-16T12:16:00.263Z,4.77
2019-01-16T12:19:00.752Z,5.27
2019-01-16T12:21:46.495Z,3.10
2019-01-16T12:24:28.930Z,7.00
2019-01-16T12:30:22.773Z,3.77
2019-01-16T12:33:22.413Z,3.70
2019-01-16T12:36:04.374Z,2.90
2019-01-16T12:38:50.201Z,3.63
2019-01-16T12:41:35.797Z,3.67
2019-01-16T12:44:18.677Z,2.93
2019-01-16T12:47:18.831Z,2.67
2019-01-16T12:50:01.658Z,5.70
2019-01-16T12:52:53.949Z,3.13
2019-01-16T12:55:48.210Z,4.33
2019-01-16T13:01:28.321Z,2.67
2019-01-16T13:04:11.740Z,3.87
2019-01-16T13:07:12.050Z,2.70
2019-01-16T13:10:12.543Z,2.83
2019-01-16T13:16:20.331Z,2.47
2019-01-16T13:19:06.034Z,2.93
2019-01-16T13:22:06.421Z,3.87
2019-01-16T13:25:06.686Z,2.57
2019-01-16T13:27:51.404Z,4.20
2019-01-16T13:30:51.056Z,3.20
2019-01-16T13:33:51.336Z,3.77
2019-01-16T13:36:51.687Z,4.47
2019-01-16T13:39:32.229Z,3.53
2019-01-16T13:42:39.337Z,4.27
2019-01-16T13:48:54.949Z,3.53
2019-01-16T13:52:02.025Z,4.67
2019-01-16T13:55:09.140Z,4.80
2019-01-16T13:58:16.252Z,5.50
2019-01-16T14:01:23.406Z,4.37
2019-01-16T14:07:07.389Z,4.53
2019-01-16T14:13:00.986Z,4.10
2019-01-16T14:15:46.421Z,6.50
2019-01-16T14:18:29.021Z,6.13
2019-01-16T14:21:11.822Z,5.03
2019-01-16T14:23:54.392Z,4.73
2019-01-16T14:26:39.743Z,5.07
2019-01-16T14:29:21.811Z,4.30
2019-01-16T14:32:07.140Z,5.20
2019-01-16T14:38:01.054Z,4.60
2019-01-16T14:41:00.659Z,6.47
2019-01-16T14:44:00.324Z,5.87
2019-01-16T14:46:59.995Z,5.03
2019-01-16T14:49:44.649Z,4.20
2019-01-16T14:55:21.782Z,5.03
2019-01-16T14:58:21.899Z,4.90
2019-01-16T15:01:21.550Z,5.70
2019-01-16T15:04:03.468Z,4.50
2019-01-16T15:07:03.506Z,5.80
2019-01-16T15:16:05.007Z,4.57
2019-01-16T15:19:04.682Z,5.37
2019-01-16T15:21:49.539Z,3.97
2019-01-16T15:24:32.333Z,5.33
2019-01-16T15:27:32.377Z,4.97
2019-01-16T15:30:14.433Z,5.53
2019-01-16T15:33:14.524Z,3.70
2019-01-16T15:36:14.051Z,5.33
2019-01-16T15:38:56.106Z,7.90
2019-01-16T15:41:56.186Z,6.07
2019-01-16T15:44:56.532Z,4.90
2019-01-16T15:47:38.635Z,7.90
2019-01-16T15:50:24.545Z,6.23
2019-01-16T15:53:09.890Z,5.47
2019-01-16T15:58:46.046Z,6.57
2019-01-16T16:01:31.262Z,31.37
2019-01-16T16:04:14.154Z,8.37
2019-01-16T16:06:56.969Z,10.27
2019-01-16T16:09:39.782Z,6.93
2019-01-16T16:12:24.366Z,10.03
2019-01-16T16:15:09.614Z,6.27
2019-01-16T16:18:09.676Z,8.23
2019-01-16T16:24:03.318Z,9.30
2019-01-16T16:26:45.366Z,9.00
2019-01-16T16:29:45.494Z,10.33
2019-01-16T16:32:28.422Z,9.97
2019-01-16T16:35:28.580Z,12.60
2019-01-16T16:38:28.242Z,13.27
2019-01-16T16:41:13.808Z,10.90
2019-01-16T16:44:13.395Z,9.60
2019-01-16T16:46:55.934Z,11.67
2019-01-16T16:49:55.974Z,13.97
2019-01-16T16:52:55.471Z,11.00
2019-01-16T16:55:56.049Z,14.17
2019-01-16T16:58:42.031Z,14.00
2019-01-16T17:04:19.070Z,12.77
2019-01-16T17:07:19.321Z,15.93
2019-01-16T17:10:19.730Z,17.53
2019-01-16T17:13:20.073Z,23.50
2019-01-16T17:16:19.752Z,20.00
2019-01-16T17:19:02.537Z,20.90
2019-01-16T17:22:02.369Z,15.57
2019-01-16T17:25:02.027Z,15.63
2019-01-16T17:28:02.402Z,22.70
2019-01-16T17:30:44.489Z,16.23
2019-01-16T17:33:26.785Z,11.87
2019-01-16T17:36:26.761Z,11.27
2019-01-16T17:42:16.150Z,14.00
2019-01-16T17:45:16.085Z,12.57
2019-01-16T17:50:52.930Z,9.47
2019-01-16T17:53:34.898Z,9.27
2019-01-16T17:56:35.346Z,11.63
2019-01-16T17:59:20.306Z,15.80
2019-01-16T18:02:02.786Z,18.37
2019-01-16T18:05:02.898Z,9.37
2019-01-16T18:08:03.396Z,12.53
2019-01-16T18:11:03.162Z,14.87
2019-01-16T18:13:48.802Z,12.40
2019-01-16T18:16:49.134Z,11.40
2019-01-16T18:19:34.133Z,8.40
2019-01-16T18:22:34.490Z,12.43
2019-01-16T18:25:34.794Z,28.67
2019-01-16T18:28:17.493Z,15.63
2019-01-16T18:31:17.306Z,12.43
2019-01-16T18:37:25.022Z,18.63
2019-01-16T18:40:24.587Z,14.83
2019-01-16T18:43:31.828Z,10.83
2019-01-16T18:46:38.968Z,18.13
2019-01-16T18:49:46.034Z,20.07
2019-01-16T18:52:53.244Z,16.10
2019-01-16T18:56:00.394Z,14.70
2019-01-16T18:59:07.510Z,15.03
2019-01-16T19:02:14.590Z,13.70
2019-01-16T19:07:54.706Z,14.50
2019-01-16T19:10:37.562Z,15.37
2019-01-16T19:16:32.635Z,18.03
2019-01-16T19:19:14.711Z,15.90
2019-01-16T19:22:14.678Z,22.63
2019-01-16T19:24:57.399Z,16.33
2019-01-16T19:27:40.134Z,19.47
2019-01-16T19:33:15.518Z,19.73
2019-01-16T19:36:15.598Z,19.77
2019-01-16T19:39:00.538Z,17.37
2019-01-16T19:42:00.761Z,20.20
2019-01-16T19:45:00.312Z,16.23
2019-01-16T19:47:42.350Z,15.83
2019-01-16T19:50:25.152Z,16.77
2019-01-16T19:53:25.274Z,17.13
2019-01-16T20:02:13.301Z,24.93
2019-01-16T20:04:59.147Z,23.77
2019-01-16T20:07:41.198Z,23.87
2019-01-16T20:10:41.622Z,23.90
2019-01-16T20:16:17.062Z,21.00
2019-01-16T20:19:02.440Z,14.67
2019-01-16T20:21:47.979Z,17.77
2019-01-16T20:24:47.858Z,16.77
2019-01-16T20:27:29.903Z,17.33
2019-01-16T20:30:30.010Z,16.13
2019-01-16T20:33:15.084Z,19.10
2019-01-16T20:36:00.530Z,21.53
2019-01-16T20:38:43.278Z,17.93
2019-01-16T20:41:43.743Z,15.43
2019-01-16T20:44:43.314Z,14.87
2019-01-16T20:47:43.808Z,19.07
2019-01-16T20:50:44.328Z,14.83
2019-01-16T20:53:29.058Z,17.60
2019-01-16T20:56:29.158Z,16.63
2019-01-16T21:02:21.360Z,14.07
2019-01-16T21:05:23.051Z,19.03
2019-01-16T21:08:23.266Z,16.63
2019-01-16T21:11:06.062Z,15.37
2019-01-16T21:14:05.950Z,14.57
2019-01-16T21:16:50.627Z,19.43
2019-01-16T21:19:33.435Z,19.17
2019-01-16T21:22:33.622Z,15.73
2019-01-16T21:28:26.746Z,14.90
2019-01-16T21:34:20.055Z,15.17
2019-01-16T21:37:04.819Z,15.50
2019-01-16T21:40:04.454Z,15.47
2019-01-16T21:43:04.014Z,17.23
2019-01-16T21:45:46.220Z,15.97
2019-01-16T21:48:31.722Z,22.23
2019-01-16T21:54:39.536Z,18.63
2019-01-16T21:57:39.892Z,21.67
2019-01-16T22:00:22.592Z,18.80
2019-01-16T22:03:22.815Z,21.33
2019-01-16T22:09:16.339Z,16.20
2019-01-16T22:12:16.278Z,16.13
2019-01-16T22:15:01.154Z,14.53
2019-01-16T22:18:01.312Z,18.80
2019-01-16T22:23:55.199Z,18.07
2019-01-16T22:26:54.903Z,19.83
2019-01-16T22:29:39.619Z,17.70
2019-01-16T22:32:39.538Z,16.67
2019-01-16T22:35:25.366Z,14.43
2019-01-16T22:38:08.202Z,16.23
2019-01-16T22:41:08.386Z,15.57
2019-01-16T22:43:51.230Z,15.93
2019-01-16T22:46:33.650Z,14.27
2019-01-16T22:49:16.070Z,17.27
2019-01-16T22:52:16.240Z,17.23
2019-01-16T22:55:16.062Z,15.40
2019-01-16T22:57:58.932Z,14.10
2019-01-16T23:00:59.338Z,14.13
2019-01-16T23:03:59.611Z,14.63
2019-01-16T23:06:59.390Z,15.67
2019-01-16T23:09:59.675Z,16.47
2019-01-16T23:15:36.806Z,13.40
2019-01-16T23:18:21.930Z,15.03
2019-01-16T23:21:21.630Z,13.00
2019-01-16T23:24:04.839Z,14.77
2019-01-16T23:26:50.123Z,11.63
2019-01-16T23:29:32.526Z,12.67
2019-01-16T23:32:32.948Z,10.37
2019-01-16T23:35:15.712Z,11.10
2019-01-16T23:38:15.787Z,11.83
2019-01-16T23:41:16.198Z,11.00
2019-01-16T23:44:15.651Z,13.60
2019-01-16T23:47:16.081Z,16.97
2019-01-16T23:50:16.395Z,12.27
2019-01-16T23:53:15.943Z,9.23
2019-01-16T23:56:16.283Z,14.30
2019-01-16T23:59:15.846Z,11.50
